Nakaei Maru — JK5610 — position and weather

sailwx.info

Track history (hours):
 
Tides and Currents Weather Stations Pressure Air Temp Water Temp Dewpoint Dewpoint Depression Visibility Wind Speed Wind Dir Waves Ship Positions

Nakaei Maru

Last reported at 2017-Dec-16 12:44 UTC. Time now 2017-Dec-17 04:20 UTC.
Position N 34°60' E 140°12'.

Length 95 m; draft 4 m.

Type: Tanker. MMSI: 431401925.

Date/timePositionNaut miles runAvg speedWind from/ knotsBaromVisibWave heightAir tempDewpointWater temp
2017-Dec-16 12:44N 34°60' E 140°12'415.3
2017-Dec-16 12:30N 34°58' E 140°09'1814.0
2017-Dec-16 11:14N 34°52' E 139°48'613.8
2017-Dec-16 10:49N 34°57' E 139°44'412.9
2017-Dec-16 10:30N 35°01' E 139°43'611.5
2017-Dec-16 10:01N 35°06' E 139°44'611.3
2017-Dec-16 09:31N 35°12' E 139°46'510.2
2017-Dec-16 09:00N 35°17' E 139°45'612.1
2017-Dec-16 08:30N 35°22' E 139°42'611.8
2017-Dec-16 08:00N 35°27' E 139°46'510.0
2017-Dec-16 07:31N 35°32' E 139°48'0 0.1
2017-Dec-16 07:01N 35°32' E 139°48'0 0.0
2017-Dec-16 06:31N 35°32' E 139°48'0 0.0
2017-Dec-16 05:55N 35°32' E 139°48'0 0.0
2017-Dec-16 05:30N 35°32' E 139°48'0 0.0
2017-Dec-16 05:00N 35°32' E 139°48'0 0.0
2017-Dec-16 04:27N 35°32' E 139°48'0 0.0
2017-Dec-16 03:57N 35°32' E 139°48'0 0.0
2017-Dec-16 03:30N 35°32' E 139°48'0 0.0
2017-Dec-16 03:00N 35°32' E 139°48'0 0.0
2017-Dec-16 02:30N 35°32' E 139°48'0 0.0
2017-Dec-16 02:00N 35°32' E 139°48'1 1.9
2017-Dec-16 01:30N 35°31' E 139°48'2 3.1
2017-Dec-16 00:58N 35°31' E 139°50'0 0.0
2017-Dec-16 00:19N 35°31' E 139°50'0 0.0
2017-Dec-15 23:52N 35°31' E 139°50'0 0.0
2017-Dec-15 21:55N 35°31' E 139°50'0 0.0
2017-Dec-15 21:28N 35°31' E 139°50'0 0.0
2017-Dec-15 20:52N 35°31' E 139°50'0 0.0
2017-Dec-15 20:28N 35°31' E 139°50'0 0.1
2017-Dec-15 19:49N 35°31' E 139°50'0 0.0
2017-Dec-15 19:28N 35°31' E 139°50'0 0.0
2017-Dec-15 18:58N 35°31' E 139°50'0 0.1
2017-Dec-15 18:28N 35°31' E 139°50'0 0.0
2017-Dec-15 17:55N 35°31' E 139°50'0 0.0
2017-Dec-15 17:28N 35°31' E 139°50'0 0.0
2017-Dec-15 16:58N 35°31' E 139°50'0 0.0
2017-Dec-15 16:28N 35°31' E 139°50'0 0.0
2017-Dec-15 15:55N 35°31' E 139°50'0 0.0
2017-Dec-15 15:28N 35°31' E 139°50'0 0.0
2017-Dec-15 14:58N 35°31' E 139°50'0 0.0
2017-Dec-15 14:28N 35°31' E 139°50'0 0.1
2017-Dec-15 13:52N 35°31' E 139°50'0 0.0
2017-Dec-15 13:25N 35°31' E 139°50'0 0.0
2017-Dec-15 12:52N 35°31' E 139°50'0 0.0
2017-Dec-15 12:28N 35°31' E 139°50'0 0.1
2017-Dec-15 11:59N 35°31' E 139°50'3 7.0
2017-Dec-15 11:30N 35°31' E 139°46'1 0.1
2017-Dec-15 05:57N 35°31' E 139°46'5 1.4
2017-Dec-15 02:30N 35°27' E 139°44'5 3.6
2017-Dec-15 01:00N 35°29' E 139°49'0 0.0
2017-Dec-15 00:27N 35°29' E 139°49'0 0.0
2017-Dec-14 18:24N 35°29' E 139°50'0 0.1
2017-Dec-14 18:00N 35°29' E 139°49'0 0.0
2017-Dec-14 17:30N 35°29' E 139°49'0 0.0
2017-Dec-14 16:57N 35°29' E 139°49'0 0.0
2017-Dec-14 16:21N 35°29' E 139°49'0 0.0
2017-Dec-14 16:00N 35°29' E 139°49'0 0.0
2017-Dec-14 15:00N 35°29' E 139°49'0 0.0
2017-Dec-14 14:24N 35°29' E 139°49'0 0.0
2017-Dec-14 13:45N 35°29' E 139°49'0 0.0
2017-Dec-14 13:15N 35°29' E 139°49'0 0.0
2017-Dec-14 12:51N 35°29' E 139°49'0 0.1
2017-Dec-14 12:18N 35°29' E 139°50'0 0.0
2017-Dec-14 11:54N 35°29' E 139°50'0 0.0
2017-Dec-14 11:24N 35°29' E 139°50'0 0.1
2017-Dec-14 11:00N 35°29' E 139°49'0 0.0
2017-Dec-14 09:33N 35°29' E 139°49'0 0.0
2017-Dec-14 09:24N 35°29' E 139°49'0 0.1
2017-Dec-14 08:54N 35°29' E 139°49'3 6.8
2017-Dec-14 08:30N 35°32' E 139°48'0 0.0
2017-Dec-14 05:16N 35°32' E 139°48'0 0.0
2017-Dec-14 03:58N 35°32' E 139°48'1 1.9
2017-Dec-14 03:30N 35°31' E 139°48'2 3.4
2017-Dec-14 03:00N 35°30' E 139°50'0 0.0
2017-Dec-14 02:19N 35°30' E 139°50'0 0.1
2017-Dec-14 01:52N 35°30' E 139°50'0 0.0
2017-Dec-14 01:19N 35°30' E 139°50'0 0.0
2017-Dec-14 00:58N 35°30' E 139°50'0 0.1
2017-Dec-14 00:28N 35°30' E 139°50'0 0.0
2017-Dec-13 23:22N 35°30' E 139°50'0 0.1
2017-Dec-13 22:40N 35°31' E 139°50'0 1.6
2017-Dec-13 22:30N 35°31' E 139°50'3 6.4
2017-Dec-13 22:00N 35°31' E 139°46'0 0.0
2017-Dec-13 20:44N 35°31' E 139°46'0 0.0
2017-Dec-13 20:02N 35°31' E 139°46'0 0.0
2017-Dec-13 19:56N 35°31' E 139°46'0 0.0
2017-Dec-13 18:26N 35°31' E 139°46'0 0.0
2017-Dec-13 17:53N 35°31' E 139°46'0 0.0
2017-Dec-13 14:56N 35°31' E 139°46'0 0.0
2017-Dec-13 13:53N 35°31' E 139°46'1 2.0
2017-Dec-13 13:30N 35°30' E 139°46'4 7.9
2017-Dec-13 13:00N 35°28' E 139°43'3 6.7
2017-Dec-13 12:30N 35°27' E 139°47'2 4.1
2017-Dec-13 12:00N 35°28' E 139°49'611.3
2017-Dec-13 11:30N 35°31' E 139°55'612.1
2017-Dec-13 11:00N 35°34' E 140°01'3 6.6
2017-Dec-13 10:30N 35°36' E 140°05'0 0.0
2017-Dec-13 09:56N 35°36' E 140°05'0 0.0
2017-Dec-13 09:29N 35°36' E 140°05'0 0.0
2017-Dec-13 08:59N 35°36' E 140°05'0 0.0
2017-Dec-13 08:29N 35°36' E 140°05'0 0.0
2017-Dec-13 07:59N 35°36' E 140°05'0 0.0
2017-Dec-13 07:29N 35°36' E 140°05'0 0.0
2017-Dec-13 06:59N 35°36' E 140°05'0 0.0
2017-Dec-13 06:29N 35°36' E 140°05'0 0.0
2017-Dec-13 05:59N 35°36' E 140°05'0 0.0
2017-Dec-13 05:30N 35°36' E 140°05'1 2.8
2017-Dec-13 05:00N 35°36' E 140°03'0 0.0
2017-Dec-13 04:28N 35°36' E 140°03'0 0.0
2017-Dec-13 03:58N 35°36' E 140°03'0 0.0
2017-Dec-13 03:28N 35°36' E 140°03'0 0.0
2017-Dec-13 02:58N 35°36' E 140°03'0 0.0
2017-Dec-13 02:28N 35°36' E 140°03'0 0.0
2017-Dec-13 01:58N 35°36' E 140°03'0 0.0
2017-Dec-13 01:28N 35°36' E 140°03'0 0.0
2017-Dec-13 00:58N 35°36' E 140°03'0 0.0
2017-Dec-13 00:28N 35°36' E 140°03'0 0.0
2017-Dec-12 23:58N 35°36' E 140°03'0 0.0
2017-Dec-12 23:28N 35°36' E 140°03'0 0.0
2017-Dec-12 22:58N 35°36' E 140°03'0 0.0
2017-Dec-12 22:28N 35°36' E 140°03'0 0.0
2017-Dec-12 21:58N 35°36' E 140°03'0 0.0
2017-Dec-12 21:28N 35°36' E 140°03'0 0.0
2017-Dec-12 20:58N 35°36' E 140°03'0 0.0
2017-Dec-12 20:28N 35°36' E 140°03'0 0.0
2017-Dec-12 19:58N 35°36' E 140°03'0 0.0
2017-Dec-12 19:28N 35°36' E 140°03'0 0.0
2017-Dec-12 18:58N 35°36' E 140°03'0 0.0
2017-Dec-12 18:28N 35°36' E 140°03'0 0.0
2017-Dec-12 17:58N 35°36' E 140°03'0 0.0
2017-Dec-12 17:28N 35°36' E 140°03'0 0.0
2017-Dec-12 16:58N 35°36' E 140°03'0 0.1
2017-Dec-12 16:28N 35°36' E 140°03'0 0.9
2017-Dec-12 16:00N 35°36' E 140°02'611.2
2017-Dec-12 15:28N 35°32' E 139°56'612.0
2017-Dec-12 15:00N 35°28' E 139°51'612.3
2017-Dec-12 14:30N 35°24' E 139°46'612.1
2017-Dec-12 14:01N 35°18' E 139°45'612.1
2017-Dec-12 13:30N 35°12' E 139°47'612.6
2017-Dec-12 13:00N 35°06' E 139°46'1111.4
2017-Dec-12 12:02N 34°55' E 139°46'011.8
2017-Dec-12 11:59N 34°55' E 139°46'1010.0
2017-Dec-12 10:59N 34°53' E 139°58'5 9.8
2017-Dec-12 10:27N 34°55' E 140°03'510.1
2017-Dec-12 09:57N 34°58' E 140°09'2 0.0
2017-Dec-10 15:26N 34°57' E 140°07'1614.4
2017-Dec-10 14:18N 34°52' E 139°49'614.1
2017-Dec-10 13:53N 34°56' E 139°44'513.3
2017-Dec-10 13:30N 35°01' E 139°43'612.8
2017-Dec-10 13:00N 35°08' E 139°45'612.6
2017-Dec-10 12:30N 35°14' E 139°46'612.3
2017-Dec-10 12:00N 35°19' E 139°43'611.2
2017-Dec-10 11:30N 35°25' E 139°44'611.6
2017-Dec-10 11:00N 35°28' E 139°49'611.4
2017-Dec-10 10:30N 35°32' E 139°55'611.6
2017-Dec-10 10:00N 35°34' E 140°01'3 6.2
2017-Dec-10 09:30N 35°36' E 140°05'0 0.0
2017-Dec-10 09:00N 35°36' E 140°05'0 0.0
2017-Dec-10 08:30N 35°36' E 140°05'0 0.0
2017-Dec-10 08:00N 35°36' E 140°05'0 0.0
2017-Dec-10 07:30N 35°36' E 140°05'0 0.0
2017-Dec-10 07:00N 35°36' E 140°05'0 0.0
2017-Dec-10 06:30N 35°36' E 140°05'0 0.0
2017-Dec-10 05:57N 35°36' E 140°05'0 0.0
2017-Dec-10 05:30N 35°36' E 140°05'0 0.0
2017-Dec-10 05:00N 35°36' E 140°05'0 0.1
2017-Dec-10 04:30N 35°36' E 140°05'1 2.5
2017-Dec-10 04:00N 35°35' E 140°03'5 9.3
2017-Dec-10 03:30N 35°34' E 139°58'0 0.1
2017-Dec-10 02:59N 35°34' E 139°58'0 0.0
2017-Dec-10 02:29N 35°34' E 139°58'0 0.0
2017-Dec-10 01:59N 35°34' E 139°58'0 0.0
2017-Dec-10 01:29N 35°34' E 139°58'0 0.0
2017-Dec-10 00:59N 35°34' E 139°58'0 0.0
2017-Dec-10 00:29N 35°34' E 139°58'0 0.0
2017-Dec-09 23:59N 35°34' E 139°58'0 0.0
2017-Dec-09 23:29N 35°34' E 139°58'0 0.1
2017-Dec-09 22:59N 35°34' E 139°58'0 0.0
2017-Dec-09 22:23N 35°34' E 139°58'0 0.0
2017-Dec-09 21:59N 35°34' E 139°58'0 0.0
2017-Dec-09 21:29N 35°34' E 139°58'0 0.0
2017-Dec-09 20:59N 35°34' E 139°58'0 0.0
2017-Dec-09 20:29N 35°34' E 139°58'0 0.0
2017-Dec-09 19:53N 35°34' E 139°58'0 0.0
2017-Dec-09 19:29N 35°34' E 139°58'0 0.0
2017-Dec-09 18:59N 35°34' E 139°58'0 0.0
2017-Dec-09 18:29N 35°34' E 139°58'0 0.1
2017-Dec-09 17:59N 35°34' E 139°58'0 0.0
2017-Dec-09 17:29N 35°34' E 139°58'0 0.0
2017-Dec-09 16:53N 35°34' E 139°58'0 0.0
2017-Dec-09 16:29N 35°34' E 139°58'0 0.0
2017-Dec-09 15:59N 35°34' E 139°58'0 0.0
2017-Dec-09 15:29N 35°34' E 139°58'0 0.0
2017-Dec-09 14:59N 35°34' E 139°58'0 0.0
2017-Dec-09 14:29N 35°34' E 139°58'0 0.1
2017-Dec-09 13:29N 35°34' E 139°58'0 0.0
2017-Dec-09 12:59N 35°34' E 139°58'0 0.0
2017-Dec-09 12:29N 35°34' E 139°58'0 0.0
2017-Dec-09 11:56N 35°34' E 139°58'0 0.0
2017-Dec-09 11:29N 35°34' E 139°58'0 0.0
2017-Dec-09 10:59N 35°34' E 139°58'0 0.1
2017-Dec-09 10:23N 35°34' E 139°58'0 0.1
2017-Dec-09 09:59N 35°34' E 139°58'0 0.0
2017-Dec-09 09:29N 35°34' E 139°58'0 0.0
2017-Dec-09 08:35N 35°34' E 139°58'0 0.0
2017-Dec-09 08:29N 35°34' E 139°58'0 0.1
2017-Dec-09 07:59N 35°34' E 139°58'0 0.1
2017-Dec-09 07:29N 35°34' E 139°58'2 3.7
2017-Dec-09 07:00N 35°33' E 139°56'611.7
2017-Dec-09 06:30N 35°31' E 139°49'3 5.7
2017-Dec-09 06:00N 35°31' E 139°46'0 0.0
2017-Dec-09 05:30N 35°31' E 139°46'0 0.0
2017-Dec-09 04:54N 35°31' E 139°46'0 0.0
2017-Dec-09 04:30N 35°31' E 139°46'0 0.0
2017-Dec-09 03:48N 35°31' E 139°46'0 0.0
2017-Dec-09 03:30N 35°31' E 139°46'0 0.0
2017-Dec-09 02:51N 35°31' E 139°46'0 0.0
2017-Dec-09 02:21N 35°31' E 139°46'0 0.0
2017-Dec-09 02:00N 35°31' E 139°46'0 0.0
2017-Dec-09 01:30N 35°31' E 139°46'0 0.0
2017-Dec-09 00:57N 35°31' E 139°46'0 0.0
2017-Dec-09 00:24N 35°31' E 139°46'0 0.0
2017-Dec-08 23:54N 35°31' E 139°46'0 0.0
2017-Dec-08 23:30N 35°31' E 139°46'0 0.0
2017-Dec-08 22:54N 35°31' E 139°46'0 0.0
2017-Dec-08 22:24N 35°31' E 139°46'0 0.0
2017-Dec-08 22:00N 35°31' E 139°46'1 2.2
2017-Dec-08 21:30N 35°30' E 139°45'3 6.9
2017-Dec-08 21:00N 35°27' E 139°44'5 9.4
2017-Dec-08 20:30N 35°29' E 139°49'0 0.1
2017-Dec-08 19:58N 35°29' E 139°49'0 0.0
2017-Dec-08 19:28N 35°29' E 139°49'0 0.0
2017-Dec-08 18:58N 35°29' E 139°49'0 0.0
2017-Dec-08 18:29N 35°29' E 139°49'0 0.0
2017-Dec-08 17:58N 35°29' E 139°49'0 0.0
2017-Dec-08 17:25N 35°29' E 139°49'0 0.1
2017-Dec-08 16:58N 35°29' E 139°49'0 0.0
2017-Dec-08 16:28N 35°29' E 139°49'0 0.0
2017-Dec-08 15:58N 35°29' E 139°49'0 0.0
2017-Dec-08 15:25N 35°29' E 139°49'0 0.0
2017-Dec-08 14:58N 35°29' E 139°49'0 0.0
2017-Dec-08 14:25N 35°29' E 139°49'0 0.0
2017-Dec-08 13:58N 35°29' E 139°49'0 0.0
2017-Dec-08 13:28N 35°29' E 139°49'0 0.0
2017-Dec-08 12:58N 35°29' E 139°49'0 0.1
2017-Dec-08 12:28N 35°29' E 139°49'0 0.0
2017-Dec-08 11:58N 35°29' E 139°49'0 0.0
2017-Dec-08 11:28N 35°29' E 139°49'0 0.0
2017-Dec-08 10:58N 35°29' E 139°49'0 0.0
2017-Dec-08 10:28N 35°29' E 139°49'0 0.2
2017-Dec-08 09:58N 35°29' E 139°49'3 6.5
2017-Dec-08 09:30N 35°32' E 139°48'0 0.0
2017-Dec-08 08:04N 35°32' E 139°48'0 0.0
2017-Dec-08 04:21N 35°32' E 139°48'1 2.0
2017-Dec-08 04:00N 35°31' E 139°48'2 4.0
2017-Dec-08 03:30N 35°30' E 139°50'0 0.0
2017-Dec-08 03:00N 35°30' E 139°50'0 0.1
2017-Dec-08 02:30N 35°30' E 139°50'0 0.1
2017-Dec-08 02:00N 35°30' E 139°50'0 0.1
2017-Dec-08 01:30N 35°30' E 139°50'0 0.0
2017-Dec-08 00:57N 35°30' E 139°50'0 0.0
2017-Dec-08 00:30N 35°30' E 139°50'0 0.1
2017-Dec-08 00:00N 35°30' E 139°50'0 0.0
2017-Dec-07 23:27N 35°30' E 139°50'0 0.0
2017-Dec-07 23:00N 35°30' E 139°50'0 0.0
2017-Dec-07 22:30N 35°30' E 139°50'0 0.0
2017-Dec-07 22:00N 35°30' E 139°50'0 0.0
2017-Dec-07 21:30N 35°30' E 139°50'0 0.0
2017-Dec-07 21:00N 35°30' E 139°50'0 0.1
2017-Dec-07 20:30N 35°30' E 139°50'0 0.0
2017-Dec-07 19:57N 35°30' E 139°50'0 0.0
2017-Dec-07 19:30N 35°30' E 139°50'0 0.0
2017-Dec-07 19:00N 35°30' E 139°50'0 0.1
2017-Dec-07 18:30N 35°30' E 139°50'0 0.1
2017-Dec-07 17:57N 35°30' E 139°50'0 0.0
2017-Dec-07 17:27N 35°30' E 139°50'0 0.0
2017-Dec-07 16:18N 35°30' E 139°50'0 0.0
2017-Dec-07 15:57N 35°30' E 139°50'0 0.0
2017-Dec-07 15:24N 35°30' E 139°50'0 0.0
2017-Dec-07 14:51N 35°30' E 139°50'0 0.0
2017-Dec-07 14:30N 35°30' E 139°50'0 0.0
2017-Dec-07 13:57N 35°30' E 139°50'0 0.0
2017-Dec-07 13:27N 35°30' E 139°50'0 0.0
2017-Dec-07 12:51N 35°30' E 139°50'0 0.0
2017-Dec-07 12:27N 35°30' E 139°50'0 0.2
2017-Dec-07 12:00N 35°30' E 139°50'0 0.0
2017-Dec-07 11:30N 35°30' E 139°50'0 0.0
2017-Dec-07 11:00N 35°30' E 139°50'0 0.0
2017-Dec-07 10:30N 35°30' E 139°50'0 0.0
2017-Dec-07 10:00N 35°30' E 139°50'0 0.1
2017-Dec-07 09:30N 35°30' E 139°50'0 0.0
2017-Dec-07 08:57N 35°30' E 139°50'0 0.0
2017-Dec-07 08:27N 35°30' E 139°50'0 0.1
2017-Dec-07 08:00N 35°30' E 139°50'0 0.1
2017-Dec-07 07:30N 35°30' E 139°50'0 0.1
2017-Dec-07 07:00N 35°30' E 139°50'0 0.1
2017-Dec-07 06:24N 35°30' E 139°50'0 0.1
2017-Dec-07 06:00N 35°30' E 139°50'1 2.1
2017-Dec-07 05:30N 35°30' E 139°49'3 5.3
2017-Dec-07 05:01N 35°31' E 139°46'0 0.0
2017-Dec-07 03:05N 35°31' E 139°46'0 0.0
2017-Dec-07 02:53N 35°31' E 139°46'0 0.0
2017-Dec-07 02:26N 35°31' E 139°46'0 0.0
2017-Dec-07 01:59N 35°31' E 139°46'0 0.0
2017-Dec-07 01:29N 35°31' E 139°46'0 0.0
2017-Dec-07 00:50N 35°31' E 139°46'0 0.0
2017-Dec-07 00:17N 35°31' E 139°46'0 0.0
2017-Dec-06 23:53N 35°31' E 139°46'0 0.0
2017-Dec-06 23:26N 35°31' E 139°46'0 0.0
2017-Dec-06 22:59N 35°31' E 139°46'0 0.0
2017-Dec-06 21:59N 35°31' E 139°46'0 0.0
2017-Dec-06 20:59N 35°31' E 139°46'  
Track history (hours):
 
Tides and Currents Weather Stations Pressure Air Temp Water Temp Dewpoint Dewpoint Depression Visibility Wind Speed Wind Dir Waves Ship Positions

Nakaei Maru

Last reported at 2017-Dec-16 12:44 UTC. Time now 2017-Dec-17 04:20 UTC.
Position N 34°60' E 140°12'.

Length 95 m; draft 4 m.

Type: Tanker. MMSI: 431401925.

Date/timePositionNaut miles runAvg speedWind from/ knotsBaromVisibWave heightAir tempDewpointWater temp
2017-Dec-16 12:44N 34°60' E 140°12'415.3
2017-Dec-16 12:30N 34°58' E 140°09'1814.0
2017-Dec-16 11:14N 34°52' E 139°48'613.8
2017-Dec-16 10:49N 34°57' E 139°44'412.9
2017-Dec-16 10:30N 35°01' E 139°43'611.5
2017-Dec-16 10:01N 35°06' E 139°44'611.3
2017-Dec-16 09:31N 35°12' E 139°46'510.2
2017-Dec-16 09:00N 35°17' E 139°45'612.1
2017-Dec-16 08:30N 35°22' E 139°42'611.8
2017-Dec-16 08:00N 35°27' E 139°46'510.0
2017-Dec-16 07:31N 35°32' E 139°48'0 0.1
2017-Dec-16 07:01N 35°32' E 139°48'0 0.0
2017-Dec-16 06:31N 35°32' E 139°48'0 0.0
2017-Dec-16 05:55N 35°32' E 139°48'0 0.0
2017-Dec-16 05:30N 35°32' E 139°48'0 0.0
2017-Dec-16 05:00N 35°32' E 139°48'0 0.0
2017-Dec-16 04:27N 35°32' E 139°48'0 0.0
2017-Dec-16 03:57N 35°32' E 139°48'0 0.0
2017-Dec-16 03:30N 35°32' E 139°48'0 0.0
2017-Dec-16 03:00N 35°32' E 139°48'0 0.0
2017-Dec-16 02:30N 35°32' E 139°48'0 0.0
2017-Dec-16 02:00N 35°32' E 139°48'1 1.9
2017-Dec-16 01:30N 35°31' E 139°48'2 3.1
2017-Dec-16 00:58N 35°31' E 139°50'0 0.0
2017-Dec-16 00:19N 35°31' E 139°50'0 0.0
2017-Dec-15 23:52N 35°31' E 139°50'0 0.0
2017-Dec-15 21:55N 35°31' E 139°50'0 0.0
2017-Dec-15 21:28N 35°31' E 139°50'0 0.0
2017-Dec-15 20:52N 35°31' E 139°50'0 0.0
2017-Dec-15 20:28N 35°31' E 139°50'0 0.1
2017-Dec-15 19:49N 35°31' E 139°50'0 0.0
2017-Dec-15 19:28N 35°31' E 139°50'0 0.0
2017-Dec-15 18:58N 35°31' E 139°50'0 0.1
2017-Dec-15 18:28N 35°31' E 139°50'0 0.0
2017-Dec-15 17:55N 35°31' E 139°50'0 0.0
2017-Dec-15 17:28N 35°31' E 139°50'0 0.0
2017-Dec-15 16:58N 35°31' E 139°50'0 0.0
2017-Dec-15 16:28N 35°31' E 139°50'0 0.0
2017-Dec-15 15:55N 35°31' E 139°50'0 0.0
2017-Dec-15 15:28N 35°31' E 139°50'0 0.0
2017-Dec-15 14:58N 35°31' E 139°50'0 0.0
2017-Dec-15 14:28N 35°31' E 139°50'0 0.1
2017-Dec-15 13:52N 35°31' E 139°50'0 0.0
2017-Dec-15 13:25N 35°31' E 139°50'0 0.0
2017-Dec-15 12:52N 35°31' E 139°50'0 0.0
2017-Dec-15 12:28N 35°31' E 139°50'0 0.1
2017-Dec-15 11:59N 35°31' E 139°50'3 7.0
2017-Dec-15 11:30N 35°31' E 139°46'1 0.1
2017-Dec-15 05:57N 35°31' E 139°46'5 1.4
2017-Dec-15 02:30N 35°27' E 139°44'5 3.6
2017-Dec-15 01:00N 35°29' E 139°49'0 0.0
2017-Dec-15 00:27N 35°29' E 139°49'0 0.0
2017-Dec-14 18:24N 35°29' E 139°50'0 0.1
2017-Dec-14 18:00N 35°29' E 139°49'0 0.0
2017-Dec-14 17:30N 35°29' E 139°49'0 0.0
2017-Dec-14 16:57N 35°29' E 139°49'0 0.0
2017-Dec-14 16:21N 35°29' E 139°49'0 0.0
2017-Dec-14 16:00N 35°29' E 139°49'0 0.0
2017-Dec-14 15:00N 35°29' E 139°49'0 0.0
2017-Dec-14 14:24N 35°29' E 139°49'0 0.0
2017-Dec-14 13:45N 35°29' E 139°49'0 0.0
2017-Dec-14 13:15N 35°29' E 139°49'0 0.0
2017-Dec-14 12:51N 35°29' E 139°49'0 0.1
2017-Dec-14 12:18N 35°29' E 139°50'0 0.0
2017-Dec-14 11:54N 35°29' E 139°50'0 0.0
2017-Dec-14 11:24N 35°29' E 139°50'0 0.1
2017-Dec-14 11:00N 35°29' E 139°49'0 0.0
2017-Dec-14 09:33N 35°29' E 139°49'0 0.0
2017-Dec-14 09:24N 35°29' E 139°49'0 0.1
2017-Dec-14 08:54N 35°29' E 139°49'3 6.8
2017-Dec-14 08:30N 35°32' E 139°48'0 0.0
2017-Dec-14 05:16N 35°32' E 139°48'0 0.0
2017-Dec-14 03:58N 35°32' E 139°48'1 1.9
2017-Dec-14 03:30N 35°31' E 139°48'2 3.4
2017-Dec-14 03:00N 35°30' E 139°50'0 0.0
2017-Dec-14 02:19N 35°30' E 139°50'0 0.1
2017-Dec-14 01:52N 35°30' E 139°50'0 0.0
2017-Dec-14 01:19N 35°30' E 139°50'0 0.0
2017-Dec-14 00:58N 35°30' E 139°50'0 0.1
2017-Dec-14 00:28N 35°30' E 139°50'0 0.0
2017-Dec-13 23:22N 35°30' E 139°50'0 0.1
2017-Dec-13 22:40N 35°31' E 139°50'0 1.6
2017-Dec-13 22:30N 35°31' E 139°50'3 6.4
2017-Dec-13 22:00N 35°31' E 139°46'0 0.0
2017-Dec-13 20:44N 35°31' E 139°46'0 0.0
2017-Dec-13 20:02N 35°31' E 139°46'0 0.0
2017-Dec-13 19:56N 35°31' E 139°46'0 0.0
2017-Dec-13 18:26N 35°31' E 139°46'0 0.0
2017-Dec-13 17:53N 35°31' E 139°46'0 0.0
2017-Dec-13 14:56N 35°31' E 139°46'0 0.0
2017-Dec-13 13:53N 35°31' E 139°46'1 2.0
2017-Dec-13 13:30N 35°30' E 139°46'4 7.9
2017-Dec-13 13:00N 35°28' E 139°43'3 6.7
2017-Dec-13 12:30N 35°27' E 139°47'2 4.1
2017-Dec-13 12:00N 35°28' E 139°49'611.3
2017-Dec-13 11:30N 35°31' E 139°55'612.1
2017-Dec-13 11:00N 35°34' E 140°01'3 6.6
2017-Dec-13 10:30N 35°36' E 140°05'0 0.0
2017-Dec-13 09:56N 35°36' E 140°05'0 0.0
2017-Dec-13 09:29N 35°36' E 140°05'0 0.0
2017-Dec-13 08:59N 35°36' E 140°05'0 0.0
2017-Dec-13 08:29N 35°36' E 140°05'0 0.0
2017-Dec-13 07:59N 35°36' E 140°05'0 0.0
2017-Dec-13 07:29N 35°36' E 140°05'0 0.0
2017-Dec-13 06:59N 35°36' E 140°05'0 0.0
2017-Dec-13 06:29N 35°36' E 140°05'0 0.0
2017-Dec-13 05:59N 35°36' E 140°05'0 0.0
2017-Dec-13 05:30N 35°36' E 140°05'1 2.8
2017-Dec-13 05:00N 35°36' E 140°03'0 0.0
2017-Dec-13 04:28N 35°36' E 140°03'0 0.0
2017-Dec-13 03:58N 35°36' E 140°03'0 0.0
2017-Dec-13 03:28N 35°36' E 140°03'0 0.0
2017-Dec-13 02:58N 35°36' E 140°03'0 0.0
2017-Dec-13 02:28N 35°36' E 140°03'0 0.0
2017-Dec-13 01:58N 35°36' E 140°03'0 0.0
2017-Dec-13 01:28N 35°36' E 140°03'0 0.0
2017-Dec-13 00:58N 35°36' E 140°03'0 0.0
2017-Dec-13 00:28N 35°36' E 140°03'0 0.0
2017-Dec-12 23:58N 35°36' E 140°03'0 0.0
2017-Dec-12 23:28N 35°36' E 140°03'0 0.0
2017-Dec-12 22:58N 35°36' E 140°03'0 0.0
2017-Dec-12 22:28N 35°36' E 140°03'0 0.0
2017-Dec-12 21:58N 35°36' E 140°03'0 0.0
2017-Dec-12 21:28N 35°36' E 140°03'0 0.0
2017-Dec-12 20:58N 35°36' E 140°03'0 0.0
2017-Dec-12 20:28N 35°36' E 140°03'0 0.0
2017-Dec-12 19:58N 35°36' E 140°03'0 0.0
2017-Dec-12 19:28N 35°36' E 140°03'0 0.0
2017-Dec-12 18:58N 35°36' E 140°03'0 0.0
2017-Dec-12 18:28N 35°36' E 140°03'0 0.0
2017-Dec-12 17:58N 35°36' E 140°03'0 0.0
2017-Dec-12 17:28N 35°36' E 140°03'0 0.0
2017-Dec-12 16:58N 35°36' E 140°03'0 0.1
2017-Dec-12 16:28N 35°36' E 140°03'0 0.9
2017-Dec-12 16:00N 35°36' E 140°02'611.2
2017-Dec-12 15:28N 35°32' E 139°56'612.0
2017-Dec-12 15:00N 35°28' E 139°51'612.3
2017-Dec-12 14:30N 35°24' E 139°46'612.1
2017-Dec-12 14:01N 35°18' E 139°45'612.1
2017-Dec-12 13:30N 35°12' E 139°47'612.6
2017-Dec-12 13:00N 35°06' E 139°46'1111.4
2017-Dec-12 12:02N 34°55' E 139°46'011.8
2017-Dec-12 11:59N 34°55' E 139°46'1010.0
2017-Dec-12 10:59N 34°53' E 139°58'5 9.8
2017-Dec-12 10:27N 34°55' E 140°03'510.1
2017-Dec-12 09:57N 34°58' E 140°09'2 0.0
2017-Dec-10 15:26N 34°57' E 140°07'1614.4
2017-Dec-10 14:18N 34°52' E 139°49'614.1
2017-Dec-10 13:53N 34°56' E 139°44'513.3
2017-Dec-10 13:30N 35°01' E 139°43'612.8
2017-Dec-10 13:00N 35°08' E 139°45'612.6
2017-Dec-10 12:30N 35°14' E 139°46'612.3
2017-Dec-10 12:00N 35°19' E 139°43'611.2
2017-Dec-10 11:30N 35°25' E 139°44'611.6
2017-Dec-10 11:00N 35°28' E 139°49'611.4
2017-Dec-10 10:30N 35°32' E 139°55'611.6
2017-Dec-10 10:00N 35°34' E 140°01'3 6.2
2017-Dec-10 09:30N 35°36' E 140°05'0 0.0
2017-Dec-10 09:00N 35°36' E 140°05'0 0.0
2017-Dec-10 08:30N 35°36' E 140°05'0 0.0
2017-Dec-10 08:00N 35°36' E 140°05'0 0.0
2017-Dec-10 07:30N 35°36' E 140°05'0 0.0
2017-Dec-10 07:00N 35°36' E 140°05'0 0.0
2017-Dec-10 06:30N 35°36' E 140°05'0 0.0
2017-Dec-10 05:57N 35°36' E 140°05'0 0.0
2017-Dec-10 05:30N 35°36' E 140°05'0 0.0
2017-Dec-10 05:00N 35°36' E 140°05'0 0.1
2017-Dec-10 04:30N 35°36' E 140°05'1 2.5
2017-Dec-10 04:00N 35°35' E 140°03'5 9.3
2017-Dec-10 03:30N 35°34' E 139°58'0 0.1
2017-Dec-10 02:59N 35°34' E 139°58'0 0.0
2017-Dec-10 02:29N 35°34' E 139°58'0 0.0
2017-Dec-10 01:59N 35°34' E 139°58'0 0.0
2017-Dec-10 01:29N 35°34' E 139°58'0 0.0
2017-Dec-10 00:59N 35°34' E 139°58'0 0.0
2017-Dec-10 00:29N 35°34' E 139°58'0 0.0
2017-Dec-09 23:59N 35°34' E 139°58'0 0.0
2017-Dec-09 23:29N 35°34' E 139°58'0 0.1
2017-Dec-09 22:59N 35°34' E 139°58'0 0.0
2017-Dec-09 22:23N 35°34' E 139°58'0 0.0
2017-Dec-09 21:59N 35°34' E 139°58'0 0.0
2017-Dec-09 21:29N 35°34' E 139°58'0 0.0
2017-Dec-09 20:59N 35°34' E 139°58'0 0.0
2017-Dec-09 20:29N 35°34' E 139°58'0 0.0
2017-Dec-09 19:53N 35°34' E 139°58'0 0.0
2017-Dec-09 19:29N 35°34' E 139°58'0 0.0
2017-Dec-09 18:59N 35°34' E 139°58'0 0.0
2017-Dec-09 18:29N 35°34' E 139°58'0 0.1
2017-Dec-09 17:59N 35°34' E 139°58'0 0.0
2017-Dec-09 17:29N 35°34' E 139°58'0 0.0
2017-Dec-09 16:53N 35°34' E 139°58'0 0.0
2017-Dec-09 16:29N 35°34' E 139°58'0 0.0
2017-Dec-09 15:59N 35°34' E 139°58'0 0.0
2017-Dec-09 15:29N 35°34' E 139°58'0 0.0
2017-Dec-09 14:59N 35°34' E 139°58'0 0.0
2017-Dec-09 14:29N 35°34' E 139°58'0 0.1
2017-Dec-09 13:29N 35°34' E 139°58'0 0.0
2017-Dec-09 12:59N 35°34' E 139°58'0 0.0
2017-Dec-09 12:29N 35°34' E 139°58'0 0.0
2017-Dec-09 11:56N 35°34' E 139°58'0 0.0
2017-Dec-09 11:29N 35°34' E 139°58'0 0.0
2017-Dec-09 10:59N 35°34' E 139°58'0 0.1
2017-Dec-09 10:23N 35°34' E 139°58'0 0.1
2017-Dec-09 09:59N 35°34' E 139°58'0 0.0
2017-Dec-09 09:29N 35°34' E 139°58'0 0.0
2017-Dec-09 08:35N 35°34' E 139°58'0 0.0
2017-Dec-09 08:29N 35°34' E 139°58'0 0.1
2017-Dec-09 07:59N 35°34' E 139°58'0 0.1
2017-Dec-09 07:29N 35°34' E 139°58'2 3.7
2017-Dec-09 07:00N 35°33' E 139°56'611.7
2017-Dec-09 06:30N 35°31' E 139°49'3 5.7
2017-Dec-09 06:00N 35°31' E 139°46'0 0.0
2017-Dec-09 05:30N 35°31' E 139°46'0 0.0
2017-Dec-09 04:54N 35°31' E 139°46'0 0.0
2017-Dec-09 04:30N 35°31' E 139°46'0 0.0
2017-Dec-09 03:48N 35°31' E 139°46'0 0.0
2017-Dec-09 03:30N 35°31' E 139°46'0 0.0
2017-Dec-09 02:51N 35°31' E 139°46'0 0.0
2017-Dec-09 02:21N 35°31' E 139°46'0 0.0
2017-Dec-09 02:00N 35°31' E 139°46'0 0.0
2017-Dec-09 01:30N 35°31' E 139°46'0 0.0
2017-Dec-09 00:57N 35°31' E 139°46'0 0.0
2017-Dec-09 00:24N 35°31' E 139°46'0 0.0
2017-Dec-08 23:54N 35°31' E 139°46'0 0.0
2017-Dec-08 23:30N 35°31' E 139°46'0 0.0
2017-Dec-08 22:54N 35°31' E 139°46'0 0.0
2017-Dec-08 22:24N 35°31' E 139°46'0 0.0
2017-Dec-08 22:00N 35°31' E 139°46'1 2.2
2017-Dec-08 21:30N 35°30' E 139°45'3 6.9
2017-Dec-08 21:00N 35°27' E 139°44'5 9.4
2017-Dec-08 20:30N 35°29' E 139°49'0 0.1
2017-Dec-08 19:58N 35°29' E 139°49'0 0.0
2017-Dec-08 19:28N 35°29' E 139°49'0 0.0
2017-Dec-08 18:58N 35°29' E 139°49'0 0.0
2017-Dec-08 18:29N 35°29' E 139°49'0 0.0
2017-Dec-08 17:58N 35°29' E 139°49'0 0.0
2017-Dec-08 17:25N 35°29' E 139°49'0 0.1
2017-Dec-08 16:58N 35°29' E 139°49'0 0.0
2017-Dec-08 16:28N 35°29' E 139°49'0 0.0
2017-Dec-08 15:58N 35°29' E 139°49'0 0.0
2017-Dec-08 15:25N 35°29' E 139°49'0 0.0
2017-Dec-08 14:58N 35°29' E 139°49'0 0.0
2017-Dec-08 14:25N 35°29' E 139°49'0 0.0
2017-Dec-08 13:58N 35°29' E 139°49'0 0.0
2017-Dec-08 13:28N 35°29' E 139°49'0 0.0
2017-Dec-08 12:58N 35°29' E 139°49'0 0.1
2017-Dec-08 12:28N 35°29' E 139°49'0 0.0
2017-Dec-08 11:58N 35°29' E 139°49'0 0.0
2017-Dec-08 11:28N 35°29' E 139°49'0 0.0
2017-Dec-08 10:58N 35°29' E 139°49'0 0.0
2017-Dec-08 10:28N 35°29' E 139°49'0 0.2
2017-Dec-08 09:58N 35°29' E 139°49'3 6.5
2017-Dec-08 09:30N 35°32' E 139°48'0 0.0
2017-Dec-08 08:04N 35°32' E 139°48'0 0.0
2017-Dec-08 04:21N 35°32' E 139°48'1 2.0
2017-Dec-08 04:00N 35°31' E 139°48'2 4.0
2017-Dec-08 03:30N 35°30' E 139°50'0 0.0
2017-Dec-08 03:00N 35°30' E 139°50'0 0.1
2017-Dec-08 02:30N 35°30' E 139°50'0 0.1
2017-Dec-08 02:00N 35°30' E 139°50'0 0.1
2017-Dec-08 01:30N 35°30' E 139°50'0 0.0
2017-Dec-08 00:57N 35°30' E 139°50'0 0.0
2017-Dec-08 00:30N 35°30' E 139°50'0 0.1
2017-Dec-08 00:00N 35°30' E 139°50'0 0.0
2017-Dec-07 23:27N 35°30' E 139°50'0 0.0
2017-Dec-07 23:00N 35°30' E 139°50'0 0.0
2017-Dec-07 22:30N 35°30' E 139°50'0 0.0
2017-Dec-07 22:00N 35°30' E 139°50'0 0.0
2017-Dec-07 21:30N 35°30' E 139°50'0 0.0
2017-Dec-07 21:00N 35°30' E 139°50'0 0.1
2017-Dec-07 20:30N 35°30' E 139°50'0 0.0
2017-Dec-07 19:57N 35°30' E 139°50'0 0.0
2017-Dec-07 19:30N 35°30' E 139°50'0 0.0
2017-Dec-07 19:00N 35°30' E 139°50'0 0.1
2017-Dec-07 18:30N 35°30' E 139°50'0 0.1
2017-Dec-07 17:57N 35°30' E 139°50'0 0.0
2017-Dec-07 17:27N 35°30' E 139°50'0 0.0
2017-Dec-07 16:18N 35°30' E 139°50'0 0.0
2017-Dec-07 15:57N 35°30' E 139°50'0 0.0
2017-Dec-07 15:24N 35°30' E 139°50'0 0.0
2017-Dec-07 14:51N 35°30' E 139°50'0 0.0
2017-Dec-07 14:30N 35°30' E 139°50'0 0.0
2017-Dec-07 13:57N 35°30' E 139°50'0 0.0
2017-Dec-07 13:27N 35°30' E 139°50'0 0.0
2017-Dec-07 12:51N 35°30' E 139°50'0 0.0
2017-Dec-07 12:27N 35°30' E 139°50'0 0.2
2017-Dec-07 12:00N 35°30' E 139°50'0 0.0
2017-Dec-07 11:30N 35°30' E 139°50'0 0.0
2017-Dec-07 11:00N 35°30' E 139°50'0 0.0
2017-Dec-07 10:30N 35°30' E 139°50'0 0.0
2017-Dec-07 10:00N 35°30' E 139°50'0 0.1
2017-Dec-07 09:30N 35°30' E 139°50'0 0.0
2017-Dec-07 08:57N 35°30' E 139°50'0 0.0
2017-Dec-07 08:27N 35°30' E 139°50'0 0.1
2017-Dec-07 08:00N 35°30' E 139°50'0 0.1
2017-Dec-07 07:30N 35°30' E 139°50'0 0.1
2017-Dec-07 07:00N 35°30' E 139°50'0 0.1
2017-Dec-07 06:24N 35°30' E 139°50'0 0.1
2017-Dec-07 06:00N 35°30' E 139°50'1 2.1
2017-Dec-07 05:30N 35°30' E 139°49'3 5.3
2017-Dec-07 05:01N 35°31' E 139°46'0 0.0
2017-Dec-07 03:05N 35°31' E 139°46'0 0.0
2017-Dec-07 02:53N 35°31' E 139°46'0 0.0
2017-Dec-07 02:26N 35°31' E 139°46'0 0.0
2017-Dec-07 01:59N 35°31' E 139°46'0 0.0
2017-Dec-07 01:29N 35°31' E 139°46'0 0.0
2017-Dec-07 00:50N 35°31' E 139°46'0 0.0
2017-Dec-07 00:17N 35°31' E 139°46'0 0.0
2017-Dec-06 23:53N 35°31' E 139°46'0 0.0
2017-Dec-06 23:26N 35°31' E 139°46'0 0.0
2017-Dec-06 22:59N 35°31' E 139°46'0 0.0
2017-Dec-06 21:59N 35°31' E 139°46'0 0.0
2017-Dec-06 20:59N 35°31' E 139°46'  

Dump ship's entire track history